createdAt,value
2018-03-26T00:00:10.774Z,94206.88
2018-03-26T00:03:14.079Z,94217.59
2018-03-26T00:06:17.541Z,94215.78
2018-03-26T00:09:20.854Z,94210.08
2018-03-26T00:12:24.139Z,94202.31
2018-03-26T00:15:27.424Z,94204.11
2018-03-26T00:18:30.859Z,94202.41
2018-03-26T00:21:34.152Z,94213.41
2018-03-26T00:24:37.429Z,94201.58
2018-03-26T00:27:40.727Z,94196.44
2018-03-26T00:30:44.118Z,94188.84
2018-03-26T00:33:47.409Z,94189.30
2018-03-26T00:36:55.749Z,94184.85
2018-03-26T00:39:59.049Z,94181.16
2018-03-26T00:43:02.332Z,94175.75
2018-03-26T00:46:05.714Z,94173.91
2018-03-26T00:49:08.994Z,94171.89
2018-03-26T00:52:12.278Z,94176.17
2018-03-26T00:55:15.998Z,94185.98
2018-03-26T00:58:19.270Z,94189.12
2018-03-26T01:01:22.812Z,94203.55
2018-03-26T01:04:26.095Z,94205.95
2018-03-26T01:07:29.402Z,94209.24
2018-03-26T01:10:32.725Z,94208.90
2018-03-26T01:13:36.130Z,94208.61
2018-03-26T01:16:39.428Z,94207.87
2018-03-26T01:19:42.759Z,94217.55
2018-03-26T01:22:46.057Z,94217.63
2018-03-26T01:25:49.360Z,94212.45
2018-03-26T01:28:52.638Z,94215.67
2018-03-26T01:31:55.932Z,94219.04
2018-03-26T01:34:59.230Z,94211.52
2018-03-26T01:38:08.413Z,94213.66
2018-03-26T01:41:11.689Z,94221.01
2018-03-26T01:44:15.004Z,94223.22
2018-03-26T01:47:18.281Z,94217.47
2018-03-26T01:50:21.582Z,94217.28
2018-03-26T01:53:25.932Z,94209.64
2018-03-26T01:56:29.977Z,94215.37
2018-03-26T01:59:33.250Z,94216.64
2018-03-26T02:02:37.295Z,94212.86
2018-03-26T02:05:40.561Z,94208.81
2018-03-26T02:08:44.635Z,94212.97
2018-03-26T02:11:47.926Z,94215.69
2018-03-26T02:14:51.971Z,94221.08
2018-03-26T02:17:55.530Z,94231.59
2018-03-26T02:20:58.812Z,94227.89
2018-03-26T02:24:02.118Z,94228.44
2018-03-26T02:27:05.413Z,94236.16
2018-03-26T02:30:08.711Z,94239.58
2018-03-26T02:33:12.002Z,94238.31
2018-03-26T02:36:15.455Z,94243.95
2018-03-26T02:39:18.734Z,94246.52
2018-03-26T02:42:22.018Z,94238.58
2018-03-26T02:45:25.385Z,94244.36
2018-03-26T02:48:29.431Z,94241.41
2018-03-26T02:51:33.622Z,94238.41
2018-03-26T02:54:36.938Z,94238.37
2018-03-26T02:57:40.278Z,94240.31
2018-03-26T03:00:43.563Z,94242.88
2018-03-26T03:03:48.430Z,94245.95
2018-03-26T03:06:51.762Z,94239.92
2018-03-26T03:09:55.072Z,94235.84
2018-03-26T03:12:58.349Z,94238.13
2018-03-26T03:16:01.625Z,94242.23
2018-03-26T03:19:05.690Z,94248.20
2018-03-26T03:22:08.994Z,94252.98
2018-03-26T03:25:12.284Z,94252.79
2018-03-26T03:28:15.591Z,94252.22
2018-03-26T03:31:18.866Z,94255.01
2018-03-26T03:34:22.151Z,94260.67
2018-03-26T03:37:25.456Z,94253.31
2018-03-26T03:40:28.761Z,94255.49
2018-03-26T03:43:32.071Z,94266.48
2018-03-26T03:46:35.371Z,94263.84
2018-03-26T03:49:38.670Z,94262.26
2018-03-26T03:52:41.963Z,94269.64
2018-03-26T03:55:45.233Z,94271.23
2018-03-26T03:58:49.303Z,94268.19
2018-03-26T04:01:52.591Z,94274.97
2018-03-26T04:04:55.983Z,94275.22
2018-03-26T04:07:59.284Z,94271.83
2018-03-26T04:11:02.574Z,94265.53
2018-03-26T04:14:05.962Z,94273.38
2018-03-26T04:17:09.439Z,94280.72
2018-03-26T04:20:12.701Z,94274.12
2018-03-26T04:23:16.778Z,94271.50
2018-03-26T04:26:20.078Z,94279.42
2018-03-26T04:29:23.350Z,94277.56
2018-03-26T04:32:26.626Z,94269.63
2018-03-26T04:35:29.918Z,94264.76
2018-03-26T04:38:33.191Z,94268.77
2018-03-26T04:41:36.526Z,94269.67
2018-03-26T04:44:39.776Z,94269.86
2018-03-26T04:47:43.061Z,94271.69
2018-03-26T04:50:46.358Z,94280.53
2018-03-26T04:53:49.673Z,94282.78
2018-03-26T04:56:53.598Z,94285.75
2018-03-26T04:59:56.926Z,94291.59
2018-03-26T05:03:00.613Z,94299.06
2018-03-26T05:06:03.882Z,94304.86
2018-03-26T05:09:07.165Z,94309.73
2018-03-26T05:12:10.444Z,94313.59
2018-03-26T05:15:14.516Z,94311.80
2018-03-26T05:18:18.602Z,94309.88
2018-03-26T05:21:21.910Z,94311.45
2018-03-26T05:24:25.195Z,94307.13
2018-03-26T05:27:28.482Z,94313.30
2018-03-26T05:30:31.785Z,94316.89
2018-03-26T05:33:35.103Z,94327.55
2018-03-26T05:36:38.429Z,94329.52
2018-03-26T05:39:41.742Z,94332.00
2018-03-26T05:42:45.033Z,94338.90
2018-03-26T05:45:48.295Z,94342.86
2018-03-26T05:48:51.589Z,94348.05
2018-03-26T05:51:54.864Z,94354.09
2018-03-26T05:54:58.153Z,94361.14
2018-03-26T05:58:02.197Z,94359.66
2018-03-26T06:01:05.464Z,94364.34
2018-03-26T06:04:09.870Z,94367.47
2018-03-26T06:07:14.183Z,94365.46
2018-03-26T06:10:17.556Z,94367.75
2018-03-26T06:13:20.926Z,94371.75
2018-03-26T06:16:24.223Z,94375.91
2018-03-26T06:19:29.368Z,94384.15
2018-03-26T06:22:32.671Z,94378.59
2018-03-26T06:25:36.119Z,94382.09
2018-03-26T06:28:39.646Z,94382.84
2018-03-26T06:31:43.805Z,94384.58
2018-03-26T06:34:47.354Z,94387.69
2018-03-26T06:37:57.088Z,94383.98
2018-03-26T06:41:00.334Z,94395.44
2018-03-26T06:44:04.434Z,94388.36
2018-03-26T06:47:07.725Z,94393.69
2018-03-26T06:50:11.765Z,94392.09
2018-03-26T06:53:15.173Z,94396.96
2018-03-26T06:56:18.473Z,94399.05
2018-03-26T06:59:21.762Z,94404.03
2018-03-26T07:02:25.311Z,94409.78
2018-03-26T07:05:28.599Z,94408.38
2018-03-26T07:08:32.263Z,94412.73
2018-03-26T07:11:35.573Z,94403.89
2018-03-26T07:14:38.960Z,94404.48
2018-03-26T07:17:42.625Z,94408.10
2018-03-26T07:20:46.770Z,94410.95
2018-03-26T07:23:50.130Z,94410.05
2018-03-26T07:26:53.392Z,94409.22
2018-03-26T07:29:56.669Z,94408.00
2018-03-26T07:33:00.466Z,94417.13
2018-03-26T07:36:04.513Z,94417.72
2018-03-26T07:39:08.405Z,94428.67
2018-03-26T07:42:11.734Z,94423.41
2018-03-26T07:45:15.029Z,94419.83
2018-03-26T07:48:18.314Z,94430.94
2018-03-26T07:51:21.746Z,94426.23
2018-03-26T07:54:27.989Z,94432.59
2018-03-26T07:57:31.315Z,94433.94
2018-03-26T08:00:34.703Z,94439.78
2018-03-26T08:03:38.320Z,94442.08
2018-03-26T08:06:42.403Z,94454.70
2018-03-26T08:09:45.725Z,94449.41
2018-03-26T08:12:49.087Z,94458.85
2018-03-26T08:15:52.377Z,94463.53
2018-03-26T08:18:56.437Z,94462.31
2018-03-26T08:21:59.866Z,94470.66
2018-03-26T08:25:03.194Z,94476.09
2018-03-26T08:28:07.248Z,94473.34
2018-03-26T08:31:10.547Z,94487.33
2018-03-26T08:34:13.984Z,94492.54
2018-03-26T08:37:17.271Z,94492.48
2018-03-26T08:40:20.556Z,94500.39
2018-03-26T08:43:23.844Z,94493.92
2018-03-26T08:46:27.896Z,94496.48
2018-03-26T08:49:31.968Z,94505.16
2018-03-26T08:52:35.245Z,94500.77
2018-03-26T08:55:38.534Z,94506.97
2018-03-26T08:58:41.885Z,94510.73
2018-03-26T09:01:45.172Z,94509.58
2018-03-26T09:04:49.441Z,94511.45
2018-03-26T09:07:53.475Z,94515.32
2018-03-26T09:10:56.806Z,94514.49
2018-03-26T09:14:00.153Z,94524.46
2018-03-26T09:17:04.201Z,94521.22
2018-03-26T09:20:07.502Z,94530.63
2018-03-26T09:23:10.773Z,94530.53
2018-03-26T09:26:14.064Z,94529.36
2018-03-26T09:29:17.362Z,94533.80
2018-03-26T09:32:20.636Z,94533.72
2018-03-26T09:35:24.728Z,94531.03
2018-03-26T09:38:28.004Z,94531.20
2018-03-26T09:41:31.295Z,94529.13
2018-03-26T09:44:34.593Z,94523.04
2018-03-26T09:47:37.873Z,94527.69
2018-03-26T09:50:41.153Z,94530.91
2018-03-26T09:53:45.209Z,94533.00
2018-03-26T09:56:48.486Z,94530.80
2018-03-26T09:59:51.799Z,94537.98
2018-03-26T10:02:55.077Z,94539.70
2018-03-26T10:05:58.377Z,94547.95
2018-03-26T10:09:02.761Z,94547.74
2018-03-26T10:12:06.039Z,94546.38
2018-03-26T10:15:09.342Z,94550.75
2018-03-26T10:18:12.782Z,94552.92
2018-03-26T10:21:16.091Z,94557.73
2018-03-26T10:24:19.466Z,94549.73
2018-03-26T10:27:23.540Z,94551.34
2018-03-26T10:30:26.906Z,94549.83
2018-03-26T10:33:30.186Z,94555.77
2018-03-26T10:36:34.309Z,94552.78
2018-03-26T10:39:37.583Z,94554.59
2018-03-26T10:42:41.766Z,94550.14
2018-03-26T10:45:45.053Z,94555.43
2018-03-26T10:48:48.350Z,94555.34
2018-03-26T10:51:51.613Z,94551.85
2018-03-26T10:54:54.970Z,94555.96
2018-03-26T10:57:58.233Z,94557.46
2018-03-26T11:01:01.552Z,94556.12
2018-03-26T11:04:05.182Z,94561.83
2018-03-26T11:07:08.512Z,94559.31
2018-03-26T11:10:11.851Z,94550.17
2018-03-26T11:13:15.348Z,94557.86
2018-03-26T11:16:18.679Z,94558.02
2018-03-26T11:19:21.965Z,94557.28
2018-03-26T11:22:25.251Z,94549.33
2018-03-26T11:25:28.597Z,94548.55
2018-03-26T11:28:31.902Z,94543.83
2018-03-26T11:31:36.182Z,94539.84
2018-03-26T11:34:39.481Z,94538.79
2018-03-26T11:37:42.754Z,94544.75
2018-03-26T11:40:46.067Z,94540.49
2018-03-26T11:43:49.362Z,94544.12
2018-03-26T11:46:52.646Z,94543.66
2018-03-26T11:49:55.938Z,94536.25
2018-03-26T11:52:59.526Z,94536.70
2018-03-26T11:56:02.993Z,94549.52
2018-03-26T11:59:07.051Z,94537.76
2018-03-26T12:02:10.668Z,94536.58
2018-03-26T12:05:14.205Z,94546.99
2018-03-26T12:08:17.597Z,94542.16
2018-03-26T12:11:21.679Z,94548.64
2018-03-26T12:14:24.977Z,94546.05
2018-03-26T12:17:28.305Z,94542.25
2018-03-26T12:20:50.478Z,94547.33
2018-03-26T12:24:12.538Z,94548.85
2018-03-26T12:27:15.814Z,94549.88
2018-03-26T12:30:21.249Z,94550.09
2018-03-26T12:33:24.519Z,94552.88
2018-03-26T12:36:28.728Z,94549.67
2018-03-26T12:39:32.128Z,94543.30
2018-03-26T12:42:35.409Z,94546.95
2018-03-26T12:45:56.571Z,94549.39
2018-03-26T12:48:59.858Z,94550.21
2018-03-26T12:52:20.977Z,94541.88
2018-03-26T12:55:24.271Z,94548.14
2018-03-26T12:58:42.033Z,94554.25
2018-03-26T13:02:03.022Z,94558.40
2018-03-26T13:05:07.056Z,94565.22
2018-03-26T13:08:10.329Z,94558.52
2018-03-26T13:11:13.620Z,94568.09
2018-03-26T13:14:16.916Z,94572.52
2018-03-26T13:17:20.252Z,94578.88
2018-03-26T13:20:23.522Z,94582.87
2018-03-26T13:23:27.774Z,94584.05
2018-03-26T13:26:31.826Z,94580.05
2018-03-26T13:29:35.148Z,94574.45
2018-03-26T13:32:38.500Z,94585.58
2018-03-26T13:35:41.786Z,94581.08
2018-03-26T13:38:45.100Z,94589.00
2018-03-26T13:41:48.388Z,94581.08
2018-03-26T13:44:52.455Z,94582.85
2018-03-26T13:47:55.757Z,94586.70
2018-03-26T13:50:59.865Z,94586.44
2018-03-26T13:54:03.169Z,94590.20
2018-03-26T13:57:06.429Z,94596.42
2018-03-26T14:00:09.760Z,94602.24
2018-03-26T14:03:13.045Z,94607.73
2018-03-26T14:06:16.366Z,94603.86
2018-03-26T14:09:38.427Z,94614.34
2018-03-26T14:12:59.448Z,94611.38
2018-03-26T14:16:21.387Z,94614.82
2018-03-26T14:19:24.706Z,94617.40
2018-03-26T14:22:28.001Z,94616.89
2018-03-26T14:25:31.306Z,94615.55
2018-03-26T14:28:34.596Z,94611.09
2018-03-26T14:31:38.787Z,94617.23
2018-03-26T14:34:53.472Z,94618.94
2018-03-26T14:37:58.588Z,94620.06
2018-03-26T14:41:01.883Z,94614.09
2018-03-26T14:44:05.213Z,94615.50
2018-03-26T14:47:09.276Z,94619.13
2018-03-26T14:50:12.572Z,94621.97
2018-03-26T14:53:15.870Z,94629.34
2018-03-26T14:56:19.182Z,94630.67
2018-03-26T14:59:22.448Z,94630.13
2018-03-26T15:02:26.034Z,94633.55
2018-03-26T15:05:29.574Z,94631.67
2018-03-26T15:08:32.837Z,94628.43
2018-03-26T15:11:36.134Z,94626.73
2018-03-26T15:14:39.430Z,94626.60
2018-03-26T15:17:42.698Z,94628.39
2018-03-26T15:20:46.842Z,94631.35
2018-03-26T15:23:50.197Z,94630.81
2018-03-26T15:26:54.666Z,94636.63
2018-03-26T15:29:57.943Z,94635.63
2018-03-26T15:33:02.172Z,94637.98
2018-03-26T15:36:05.506Z,94645.42
2018-03-26T15:39:08.825Z,94643.02
2018-03-26T15:42:12.169Z,94645.56
2018-03-26T15:45:15.433Z,94645.27
2018-03-26T15:48:18.770Z,94653.19
2018-03-26T15:51:22.805Z,94655.20
2018-03-26T15:54:26.099Z,94650.37
2018-03-26T15:57:29.363Z,94653.53
2018-03-26T16:00:33.423Z,94658.97
2018-03-26T16:03:36.721Z,94663.23
2018-03-26T16:06:40.013Z,94659.10
2018-03-26T16:09:43.301Z,94667.50
2018-03-26T16:12:46.564Z,94671.64
2018-03-26T16:15:50.629Z,94672.81
2018-03-26T16:18:53.926Z,94672.74
2018-03-26T16:21:57.248Z,94673.50
2018-03-26T16:25:00.794Z,94672.72
2018-03-26T16:28:04.908Z,94673.91
2018-03-26T16:31:08.944Z,94677.53
2018-03-26T16:34:12.246Z,94677.01
2018-03-26T16:37:15.505Z,94684.73
2018-03-26T16:40:19.670Z,94686.61
2018-03-26T16:43:22.952Z,94680.86
2018-03-26T16:46:26.223Z,94680.39
2018-03-26T16:49:30.522Z,94684.45
2018-03-26T16:52:33.808Z,94684.86
2018-03-26T16:55:37.158Z,94689.20
2018-03-26T16:58:40.477Z,94692.86
2018-03-26T17:01:44.444Z,94696.73
2018-03-26T17:04:47.701Z,94698.64
2018-03-26T17:07:51.742Z,94699.60
2018-03-26T17:10:55.081Z,94702.08
2018-03-26T17:13:58.305Z,94707.62
2018-03-26T17:17:01.584Z,94717.75
2018-03-26T17:20:05.578Z,94711.89
2018-03-26T17:23:09.613Z,94712.09
2018-03-26T17:26:12.992Z,94714.38
2018-03-26T17:29:17.026Z,94720.03
2018-03-26T17:32:20.367Z,94722.89
2018-03-26T17:35:24.571Z,94717.18
2018-03-26T17:38:27.849Z,94727.16
2018-03-26T17:41:31.113Z,94729.89
2018-03-26T17:44:35.173Z,94733.05
2018-03-26T17:47:38.474Z,94737.62
2018-03-26T17:50:41.932Z,94738.56
2018-03-26T17:53:46.142Z,94748.44
2018-03-26T17:56:50.564Z,94749.22
2018-03-26T17:59:54.009Z,94758.92
2018-03-26T18:02:57.294Z,94771.61
2018-03-26T18:06:00.596Z,94791.44
2018-03-26T18:09:03.960Z,94795.33
2018-03-26T18:12:08.012Z,94803.27
2018-03-26T18:15:11.597Z,94806.27
2018-03-26T18:18:15.654Z,94800.55
2018-03-26T18:21:19.008Z,94814.85
2018-03-26T18:24:23.092Z,94812.59
2018-03-26T18:27:26.533Z,94807.23
2018-03-26T18:30:29.817Z,94805.77
2018-03-26T18:33:33.853Z,94798.03
2018-03-26T18:36:37.406Z,94796.97
2018-03-26T18:39:40.918Z,94806.05
2018-03-26T18:42:44.200Z,94803.13
2018-03-26T18:45:47.547Z,94805.02
2018-03-26T18:48:52.474Z,94805.03
2018-03-26T18:51:56.797Z,94803.16
2018-03-26T18:55:00.878Z,94803.81
2018-03-26T18:58:04.157Z,94801.14
2018-03-26T19:01:07.433Z,94812.44
2018-03-26T19:04:10.705Z,94806.44
2018-03-26T19:07:15.032Z,94813.41
2018-03-26T19:10:18.318Z,94814.58
2018-03-26T19:13:22.413Z,94814.53
2018-03-26T19:16:25.719Z,94817.63
2018-03-26T19:19:29.323Z,94818.75
2018-03-26T19:22:32.606Z,94821.33
2018-03-26T19:25:36.701Z,94829.92
2018-03-26T19:28:40.022Z,94833.37
2018-03-26T19:31:43.583Z,94831.67
2018-03-26T19:34:46.930Z,94836.78
2018-03-26T19:37:50.466Z,94844.07
2018-03-26T19:40:54.561Z,94847.19
2018-03-26T19:43:58.058Z,94851.52
2018-03-26T19:47:01.319Z,94853.66
2018-03-26T19:50:05.237Z,94854.09
2018-03-26T19:53:08.907Z,94852.16
2018-03-26T19:56:12.940Z,94860.12
2018-03-26T19:59:16.204Z,94863.45
2018-03-26T20:02:19.506Z,94864.17
2018-03-26T20:05:23.639Z,94864.56
2018-03-26T20:08:27.840Z,94864.38
2018-03-26T20:11:31.862Z,94863.25
2018-03-26T20:14:36.205Z,94867.33
2018-03-26T20:17:39.471Z,94865.38
2018-03-26T20:20:43.521Z,94870.98
2018-03-26T20:23:50.773Z,94870.09
2018-03-26T20:26:54.042Z,94869.49
2018-03-26T20:29:57.324Z,94867.09
2018-03-26T20:33:00.856Z,94872.73
2018-03-26T20:36:04.141Z,94872.22
2018-03-26T20:39:07.452Z,94873.25
2018-03-26T20:42:10.719Z,94868.75
2018-03-26T20:45:14.043Z,94862.57
2018-03-26T20:48:17.355Z,94864.31
2018-03-26T20:51:20.650Z,94867.61
2018-03-26T20:54:24.286Z,94859.30
2018-03-26T20:57:28.805Z,94859.02
2018-03-26T21:00:32.888Z,94860.12
2018-03-26T21:03:36.144Z,94859.59
2018-03-26T21:06:39.481Z,94860.12
2018-03-26T21:09:42.772Z,94866.16
2018-03-26T21:12:46.379Z,94865.83
2018-03-26T21:15:49.989Z,94865.27
2018-03-26T21:18:53.516Z,94865.08
2018-03-26T21:21:58.290Z,94864.87
2018-03-26T21:25:02.751Z,94870.63
2018-03-26T21:28:06.404Z,94868.39
2018-03-26T21:31:09.680Z,94873.11
2018-03-26T21:34:13.712Z,94867.57
2018-03-26T21:37:17.010Z,94871.94
2018-03-26T21:40:20.294Z,94859.30
2018-03-26T21:43:24.315Z,94869.06
2018-03-26T21:46:28.360Z,94866.40
2018-03-26T21:49:31.638Z,94864.52
2018-03-26T21:52:35.198Z,94863.88
2018-03-26T21:55:38.484Z,94868.28
2018-03-26T21:58:41.773Z,94867.08
2018-03-26T22:01:45.141Z,94862.84
2018-03-26T22:04:48.564Z,94865.83
2018-03-26T22:07:52.103Z,94869.84
2018-03-26T22:10:55.405Z,94862.45
2018-03-26T22:13:58.678Z,94862.16
2018-03-26T22:17:01.976Z,94863.95
2018-03-26T22:20:05.309Z,94862.17
2018-03-26T22:23:08.611Z,94869.11
2018-03-26T22:26:12.670Z,94868.80
2018-03-26T22:29:16.338Z,94864.55
2018-03-26T22:32:20.365Z,94861.67
2018-03-26T22:35:23.648Z,94862.63
2018-03-26T22:38:28.637Z,94860.93
2018-03-26T22:41:31.955Z,94865.19
2018-03-26T22:44:35.226Z,94872.30
2018-03-26T22:47:38.515Z,94872.53
2018-03-26T22:50:41.814Z,94862.44
2018-03-26T22:53:45.165Z,94873.38
2018-03-26T22:56:49.203Z,94874.44
2018-03-26T22:59:52.585Z,94876.25
2018-03-26T23:02:56.386Z,94876.55
2018-03-26T23:06:00.526Z,94873.97
2018-03-26T23:09:03.967Z,94878.97
2018-03-26T23:12:07.501Z,94868.33
2018-03-26T23:15:10.769Z,94866.49
2018-03-26T23:18:14.055Z,94871.24
2018-03-26T23:21:20.893Z,94867.95
2018-03-26T23:24:24.169Z,94867.88
2018-03-26T23:27:27.824Z,94866.11
2018-03-26T23:30:31.156Z,94872.21
2018-03-26T23:33:35.128Z,94870.36
2018-03-26T23:36:39.408Z,94877.73
2018-03-26T23:39:42.723Z,94874.64
2018-03-26T23:42:46.969Z,94870.22
2018-03-26T23:45:50.608Z,94876.63
2018-03-26T23:48:54.704Z,94876.33
2018-03-26T23:51:58.730Z,94877.52
2018-03-26T23:55:02.056Z,94871.69
2018-03-26T23:58:06.100Z,94874.62
